Time;durP1;ratioP1;P1;durP2;ratioP2;P2;SDS_P1;SDS_P2;PMS_P1;PMS_P2;Temp;Humidity;BMP_temperature;BMP_pressure;BME280_temperature;BME280_humidity;BME280_pressure;Samples;Min_cycle;Max_cycle;Signal;HPM_P1;HPM_P2
2022/06/08 00:00:01;;;;;;;11.43;6.78;;;;;;;;;;4854020;29;20045;-86
2022/06/08 00:02:29;;;;;;;12.93;7.22;;;;;;;;;;4856174;29;20041;-85
2022/06/08 00:04:55;;;;;;;10.95;7.65;;;;;;;;;;4846521;29;20608;-85
2022/06/08 00:07:21;;;;;;;16.15;8.27;;;;;;;;;;4850011;29;20472;-85
2022/06/08 00:09:47;;;;;;;13.90;7.60;;;;;;;;;;4849344;29;20047;-86
2022/06/08 00:12:14;;;;;;;13.18;8.32;;;;;;;;;;4867375;29;20057;-87
2022/06/08 00:14:41;;;;;;;11.13;7.43;;;;;;;;;;4846604;29;20053;-87
2022/06/08 00:17:07;;;;;;;9.68;7.47;;;;;;;;;;4846900;29;20124;-86
2022/06/08 00:19:33;;;;;;;10.93;7.30;;;;;;;;;;4863310;29;20151;-86
2022/06/08 00:21:59;;;;;;;11.60;7.22;;;;;;;;;;4847305;29;20041;-86
2022/06/08 00:24:25;;;;;;;13.60;7.50;;;;;;;;;;4849711;29;20132;-87
2022/06/08 00:26:52;;;;;;;18.63;8.15;;;;;;;;;;4848089;29;20059;-87
2022/06/08 00:29:18;;;;;;;12.45;7.47;;;;;;;;;;4852122;29;20088;-86
2022/06/08 00:31:45;;;;;;;12.90;7.60;;;;;;;;;;4862145;29;20064;-86
2022/06/08 00:34:12;;;;;;;10.38;7.55;;;;;;;;;;4864796;29;20148;-87
2022/06/08 00:36:38;;;;;;;15.82;7.47;;;;;;;;;;4847344;29;20048;-86
2022/06/08 00:39:04;;;;;;;12.52;7.50;;;;;;;;;;4865597;29;20045;-85
2022/06/08 00:41:39;;;;;;;14.68;7.50;;;;;;;;;;4866405;29;20047;-86
2022/06/08 00:44:07;;;;;;;11.43;6.63;;;;;;;;;;4873699;29;20056;-86
2022/06/08 00:46:33;;;;;;;9.48;6.63;;;;;;;;;;4881786;29;20056;-87
2022/06/08 00:49:02;;;;;;;10.32;6.63;;;;;;;;;;4876581;29;20045;-87
2022/06/08 00:51:29;;;;;;;7.93;6.65;;;;;;;;;;4862360;29;20059;-86
2022/06/08 00:53:58;;;;;;;14.00;7.15;;;;;;;;;;4875982;29;20506;-85
2022/06/08 00:56:27;;;;;;;11.68;7.38;;;;;;;;;;4877279;29;20041;-85
2022/06/08 00:58:54;;;;;;;8.98;7.35;;;;;;;;;;4847546;29;20049;-86
2022/06/08 01:01:20;;;;;;;12.65;7.22;;;;;;;;;;4848404;29;20033;-86
2022/06/08 01:03:46;;;;;;;15.43;7.30;;;;;;;;;;4850355;29;20081;-86
2022/06/08 01:06:19;;;;;;;13.90;7.68;;;;;;;;;;4851942;29;20398;-86
2022/06/08 01:08:47;;;;;;;11.88;7.30;;;;;;;;;;4867570;29;20045;-86
2022/06/08 01:11:17;;;;;;;10.23;7.43;;;;;;;;;;4854322;29;20105;-85
2022/06/08 01:13:44;;;;;;;15.38;8.63;;;;;;;;;;4852706;29;20052;-86
2022/06/08 01:16:11;;;;;;;15.73;8.55;;;;;;;;;;4868693;29;20064;-86
2022/06/08 01:18:37;;;;;;;14.55;7.68;;;;;;;;;;4848698;29;20045;-85
2022/06/08 01:21:36;;;;;;;10.48;7.47;;;;;;;;;;4850406;29;20060;-85
2022/06/08 01:24:03;;;;;;;9.93;7.43;;;;;;;;;;4849324;29;20057;-86
2022/06/08 01:26:32;;;;;;;12.52;7.28;;;;;;;;;;4872413;29;20045;-87
2022/06/08 01:29:14;;;;;;;15.35;7.63;;;;;;;;;;4850718;29;20053;-86
2022/06/08 01:31:40;;;;;;;11.90;8.88;;;;;;;;;;4869040;29;20049;-86
2022/06/08 01:34:09;;;;;;;13.18;9.40;;;;;;;;;;4872336;29;20414;-86
2022/06/08 01:36:47;;;;;;;14.68;9.02;;;;;;;;;;4873940;29;20116;-85
2022/06/08 01:39:16;;;;;;;15.52;9.27;;;;;;;;;;4867318;29;20379;-85
2022/06/08 01:41:51;;;;;;;14.68;9.52;;;;;;;;;;4851143;29;20033;-86
2022/06/08 01:44:17;;;;;;;16.45;10.43;;;;;;;;;;4852573;29;20110;-86
2022/06/08 01:47:02;;;;;;;11.05;8.82;;;;;;;;;;4872952;29;20045;-85
2022/06/08 01:49:47;;;;;;;13.88;9.10;;;;;;;;;;4854856;29;20045;-86
2022/06/08 01:52:19;;;;;;;19.25;10.63;;;;;;;;;;4845037;29;20799;-86
2022/06/08 01:55:05;;;;;;;18.98;11.27;;;;;;;;;;4867881;29;20409;-86
2022/06/08 01:57:31;;;;;;;17.13;11.65;;;;;;;;;;4872975;29;20056;-86
2022/06/08 02:00:04;;;;;;;19.13;12.30;;;;;;;;;;4854764;29;20048;-87
2022/06/08 02:02:40;;;;;;;18.58;13.38;;;;;;;;;;4871336;29;20057;-86
2022/06/08 02:05:12;;;;;;;18.27;12.13;;;;;;;;;;4854308;29;20053;-86
2022/06/08 02:07:45;;;;;;;16.05;11.55;;;;;;;;;;4857472;29;20062;-86
2022/06/08 02:10:33;;;;;;;17.90;12.32;;;;;;;;;;4851510;29;20081;-86
2022/06/08 02:13:37;;;;;;;18.08;12.38;;;;;;;;;;4849425;29;21045;-86
2022/06/08 02:16:22;;;;;;;21.33;12.85;;;;;;;;;;4804574;29;20061;-86
2022/06/08 02:19:20;;;;;;;20.30;12.35;;;;;;;;;;4846688;29;20053;-86
2022/06/08 02:21:55;;;;;;;19.02;12.25;;;;;;;;;;4810041;29;20058;-86
2022/06/08 02:24:45;;;;;;;14.95;11.15;;;;;;;;;;4813964;29;20373;-86
2022/06/08 02:27:20;;;;;;;20.48;12.27;;;;;;;;;;4811440;29;20062;-85
2022/06/08 02:29:59;;;;;;;21.70;12.48;;;;;;;;;;4794662;29;20506;-87
2022/06/08 02:35:16;;;;;;;16.58;11.38;;;;;;;;;;4831969;29;20050;-87
2022/06/08 02:37:45;;;;;;;19.80;12.05;;;;;;;;;;4830030;29;20175;-88
2022/06/08 02:40:17;;;;;;;19.42;10.43;;;;;;;;;;4830639;29;20054;-87
2022/06/08 02:42:48;;;;;;;16.83;10.43;;;;;;;;;;4830159;29;20125;-87
2022/06/08 02:45:37;;;;;;;17.13;10.85;;;;;;;;;;4829960;29;20056;-86
2022/06/08 02:48:09;;;;;;;15.35;11.00;;;;;;;;;;4812367;29;20061;-86
2022/06/08 02:50:35;;;;;;;13.60;11.13;;;;;;;;;;4845625;29;20158;-86
2022/06/08 02:53:10;;;;;;;15.75;11.00;;;;;;;;;;4845212;29;20085;-86
2022/06/08 02:55:45;;;;;;;16.80;10.57;;;;;;;;;;4847011;29;20152;-86
2022/06/08 02:58:18;;;;;;;15.35;11.77;;;;;;;;;;4844659;29;20069;-87
2022/06/08 03:00:49;;;;;;;18.73;11.27;;;;;;;;;;4845306;29;20068;-88
2022/06/08 03:03:36;;;;;;;15.95;11.25;;;;;;;;;;4828179;29;20033;-88
2022/06/08 03:09:57;;;;;;;17.60;11.52;;;;;;;;;;4846042;29;20100;-86
2022/06/08 03:12:51;;;;;;;17.75;11.82;;;;;;;;;;4847247;29;20414;-86
2022/06/08 03:15:23;;;;;;;;;;;;;;;;;;4849262;29;20045;-86
2022/06/08 03:21:02;;;;;;;21.88;11.70;;;;;;;;;;4852512;29;20564;-88
2022/06/08 03:23:29;;;;;;;20.83;12.48;;;;;;;;;;4851050;29;20045;-87
2022/06/08 03:26:07;;;;;;;24.83;13.20;;;;;;;;;;4850395;29;20049;-86
2022/06/08 03:28:46;;;;;;;19.90;12.48;;;;;;;;;;4844850;29;20242;-86
2022/06/08 03:31:15;;;;;;;20.15;12.45;;;;;;;;;;4844440;29;20120;-87
2022/06/08 03:33:47;;;;;;;18.00;12.65;;;;;;;;;;4844980;29;20046;-86
2022/06/08 03:36:19;;;;;;;29.95;12.70;;;;;;;;;;4860704;29;20045;-87
2022/06/08 03:38:51;;;;;;;23.13;13.68;;;;;;;;;;4858587;29;20056;-86
2022/06/08 03:41:31;;;;;;;18.55;13.10;;;;;;;;;;4858892;29;20041;-87
2022/06/08 03:44:06;;;;;;;25.95;15.15;;;;;;;;;;4860251;29;20061;-86
2022/06/08 03:46:41;;;;;;;25.73;15.63;;;;;;;;;;4860383;29;20050;-86
2022/06/08 03:49:08;;;;;;;24.23;15.20;;;;;;;;;;4845763;29;20058;-87
2022/06/08 03:51:35;;;;;;;24.17;14.75;;;;;;;;;;4845938;29;20038;-87
2022/06/08 03:54:03;;;;;;;25.05;15.15;;;;;;;;;;4844549;29;20061;-87
2022/06/08 03:56:30;;;;;;;24.40;15.88;;;;;;;;;;4844168;29;20406;-87
2022/06/08 03:58:57;;;;;;;28.65;16.17;;;;;;;;;;4844991;29;20132;-86
2022/06/08 04:01:36;;;;;;;24.05;15.07;;;;;;;;;;4860188;29;20049;-85
2022/06/08 04:04:08;;;;;;;24.17;15.50;;;;;;;;;;4846147;29;20053;-85
2022/06/08 04:06:34;;;;;;;23.63;15.07;;;;;;;;;;4846575;29;20069;-85
2022/06/08 04:09:00;;;;;;;22.33;14.68;;;;;;;;;;4843506;29;20538;-84
2022/06/08 04:11:27;;;;;;;24.30;14.75;;;;;;;;;;4857827;29;20101;-85
2022/06/08 04:13:53;;;;;;;25.20;15.50;;;;;;;;;;4846127;29;20080;-85
2022/06/08 04:16:19;;;;;;;27.67;15.70;;;;;;;;;;4843558;29;20049;-86
2022/06/08 04:18:46;;;;;;;26.00;16.42;;;;;;;;;;4857397;29;20363;-85
2022/06/08 04:21:12;;;;;;;27.48;16.75;;;;;;;;;;4847080;29;20443;-87
2022/06/08 04:23:39;;;;;;;26.83;16.92;;;;;;;;;;4845024;29;20089;-85
2022/06/08 04:26:06;;;;;;;29.52;16.80;;;;;;;;;;4845800;29;20137;-87
2022/06/08 04:28:32;;;;;;;34.08;17.60;;;;;;;;;;4842460;29;20057;-86
2022/06/08 04:30:58;;;;;;;30.70;18.52;;;;;;;;;;4848310;29;20037;-86
2022/06/08 04:33:25;;;;;;;31.23;18.85;;;;;;;;;;4843170;29;20045;-88
2022/06/08 04:35:51;;;;;;;36.17;22.52;;;;;;;;;;4849514;29;20049;-87
2022/06/08 04:38:17;;;;;;;46.00;25.58;;;;;;;;;;4850490;29;20053;-87
2022/06/08 04:40:59;;;;;;;54.58;29.90;;;;;;;;;;4832568;29;20082;-86
2022/06/08 04:43:25;;;;;;;54.63;33.90;;;;;;;;;;4850908;29;20604;-86
2022/06/08 04:45:51;;;;;;;62.67;32.92;;;;;;;;;;4848991;29;20084;-86
2022/06/08 04:48:19;;;;;;;51.70;31.52;;;;;;;;;;4849209;29;20053;-86
2022/06/08 04:50:45;;;;;;;44.83;27.45;;;;;;;;;;4828865;29;20048;-87
2022/06/08 04:53:12;;;;;;;53.90;28.33;;;;;;;;;;4852136;29;20083;-85
2022/06/08 04:55:38;;;;;;;44.10;27.60;;;;;;;;;;4855925;29;20077;-86
2022/06/08 04:58:04;;;;;;;40.20;26.65;;;;;;;;;;4847980;29;20082;-87
2022/06/08 05:00:31;;;;;;;44.83;26.02;;;;;;;;;;4861372;29;20050;-87
2022/06/08 05:02:57;;;;;;;41.78;25.98;;;;;;;;;;4847533;29;20133;-86
2022/06/08 05:05:25;;;;;;;41.83;25.73;;;;;;;;;;4844980;29;20113;-87
2022/06/08 05:07:52;;;;;;;41.95;27.35;;;;;;;;;;4842466;29;20140;-88
2022/06/08 05:10:19;;;;;;;38.17;25.23;;;;;;;;;;4846780;29;20054;-87
2022/06/08 05:12:45;;;;;;;37.35;22.95;;;;;;;;;;4848629;29;20498;-87
2022/06/08 05:15:14;;;;;;;36.95;23.92;;;;;;;;;;4862484;29;20041;-89
2022/06/08 05:17:40;;;;;;;32.17;21.95;;;;;;;;;;4844787;29;22486;-88
2022/06/08 05:20:07;;;;;;;31.15;21.17;;;;;;;;;;4864487;29;20214;-88
2022/06/08 05:22:33;;;;;;;35.00;20.73;;;;;;;;;;4847886;29;20057;-88
2022/06/08 05:25:03;;;;;;;31.10;20.58;;;;;;;;;;4847201;29;20054;-87
2022/06/08 05:27:29;;;;;;;28.33;19.98;;;;;;;;;;4832840;29;20400;-87
2022/06/08 05:29:55;;;;;;;29.15;20.42;;;;;;;;;;4847680;29;20515;-87
2022/06/08 05:32:22;;;;;;;29.67;19.73;;;;;;;;;;4862481;29;20046;-87
2022/06/08 05:34:48;;;;;;;31.83;20.08;;;;;;;;;;4848360;29;20057;-86
2022/06/08 05:37:14;;;;;;;28.90;19.10;;;;;;;;;;4849704;29;20129;-87
2022/06/08 05:39:49;;;;;;;29.42;19.75;;;;;;;;;;4849464;29;20084;-87
2022/06/08 05:42:15;;;;;;;27.25;20.33;;;;;;;;;;4845679;29;20054;-85
2022/06/08 05:44:41;;;;;;;30.23;21.52;;;;;;;;;;4849558;29;20053;-85
2022/06/08 05:47:08;;;;;;;28.98;20.17;;;;;;;;;;4848765;29;20402;-86
2022/06/08 05:49:34;;;;;;;28.40;21.08;;;;;;;;;;4851532;29;20071;-86
2022/06/08 05:52:01;;;;;;;28.05;20.27;;;;;;;;;;4848280;29;20053;-85
2022/06/08 05:54:28;;;;;;;30.13;21.25;;;;;;;;;;4860698;29;20049;-86
2022/06/08 05:56:54;;;;;;;32.30;22.20;;;;;;;;;;4845944;29;20102;-88
2022/06/08 05:59:20;;;;;;;34.88;26.15;;;;;;;;;;4852063;29;20116;-89
2022/06/08 06:01:47;;;;;;;38.92;26.38;;;;;;;;;;4852267;29;20096;-89
2022/06/08 06:04:22;;;;;;;41.70;28.10;;;;;;;;;;4865788;29;20053;-89
2022/06/08 06:06:48;;;;;;;42.78;29.65;;;;;;;;;;4846930;29;20056;-87
2022/06/08 06:09:21;;;;;;;47.53;28.73;;;;;;;;;;4882796;29;20041;-88
2022/06/08 06:11:47;;;;;;;51.42;31.10;;;;;;;;;;4867610;29;20080;-86
2022/06/08 06:14:14;;;;;;;43.83;29.33;;;;;;;;;;4867243;29;20101;-87
2022/06/08 06:16:52;;;;;;;45.50;30.33;;;;;;;;;;4854947;29;20105;-87
2022/06/08 06:22:10;;;;;;;42.00;28.75;;;;;;;;;;4854900;29;20155;-87
2022/06/08 06:24:36;;;;;;;43.92;28.70;;;;;;;;;;4873199;29;20154;-87
2022/06/08 06:27:09;;;;;;;43.97;29.45;;;;;;;;;;4871951;29;20068;-87
2022/06/08 06:29:35;;;;;;;48.20;30.58;;;;;;;;;;4864564;29;20045;-86
2022/06/08 06:32:11;;;;;;;46.47;27.63;;;;;;;;;;4863121;29;20414;-87
2022/06/08 06:34:43;;;;;;;36.63;26.17;;;;;;;;;;4867799;29;20872;-87
2022/06/08 06:37:10;;;;;;;36.90;26.80;;;;;;;;;;4864623;29;20071;-87
2022/06/08 06:39:38;;;;;;;40.92;28.25;;;;;;;;;;4846054;29;20057;-87
2022/06/08 06:42:05;;;;;;;38.60;28.10;;;;;;;;;;4856911;29;20038;-87
2022/06/08 06:44:31;;;;;;;48.35;29.23;;;;;;;;;;4853646;29;20033;-87
2022/06/08 06:46:57;;;;;;;38.47;26.50;;;;;;;;;;4853930;29;20041;-88
2022/06/08 06:49:27;;;;;;;40.10;28.38;;;;;;;;;;4867935;29;20048;-88
2022/06/08 06:51:54;;;;;;;37.38;28.10;;;;;;;;;;4840211;29;20045;-86
2022/06/08 06:54:20;;;;;;;39.67;28.13;;;;;;;;;;4869839;29;20084;-86
2022/06/08 06:56:46;;;;;;;40.22;28.83;;;;;;;;;;4869304;29;20052;-83
2022/06/08 06:59:12;;;;;;;44.83;29.40;;;;;;;;;;4853436;29;20410;-84
2022/06/08 07:01:38;;;;;;;42.85;30.63;;;;;;;;;;4867994;29;20044;-83
2022/06/08 07:04:04;;;;;;;43.90;28.40;;;;;;;;;;4871391;29;20041;-83
2022/06/08 07:06:30;;;;;;;40.00;28.02;;;;;;;;;;4871074;29;20041;-82
2022/06/08 07:08:59;;;;;;;35.33;27.20;;;;;;;;;;4871320;29;20041;-86
2022/06/08 07:11:41;;;;;;;37.35;26.80;;;;;;;;;;4870645;29;20134;-81
2022/06/08 07:14:10;;;;;;;33.78;23.67;;;;;;;;;;4872100;29;20067;-82
2022/06/08 07:16:36;;;;;;;31.02;22.23;;;;;;;;;;4870839;29;20067;-83
2022/06/08 07:19:04;;;;;;;29.42;22.27;;;;;;;;;;4862266;29;20053;-81
2022/06/08 07:21:30;;;;;;;30.20;22.48;;;;;;;;;;4856001;29;20050;-83
2022/06/08 07:23:56;;;;;;;28.55;19.42;;;;;;;;;;4861432;29;20057;-83
2022/06/08 07:26:24;;;;;;;27.98;20.85;;;;;;;;;;4872666;29;20068;-81
2022/06/08 07:28:54;;;;;;;28.13;19.70;;;;;;;;;;4870993;29;20042;-81
2022/06/08 07:31:20;;;;;;;25.50;20.58;;;;;;;;;;4865642;29;20132;-82
2022/06/08 07:33:46;;;;;;;27.88;19.48;;;;;;;;;;4854547;29;20037;-85
2022/06/08 07:36:12;;;;;;;22.55;17.80;;;;;;;;;;4871110;29;20426;-83
2022/06/08 07:38:38;;;;;;;26.48;17.83;;;;;;;;;;4869440;29;20148;-81
2022/06/08 07:41:04;;;;;;;28.63;18.85;;;;;;;;;;4871497;29;20041;-80
2022/06/08 07:43:30;;;;;;;23.48;18.58;;;;;;;;;;4856805;29;20055;-82
2022/06/08 07:45:56;;;;;;;24.48;19.17;;;;;;;;;;4872835;29;20045;-81
2022/06/08 07:51:07;;;;;;;20.15;16.75;;;;;;;;;;4842766;29;20061;-80
2022/06/08 07:53:34;;;;;;;22.52;17.35;;;;;;;;;;4861534;29;20176;-83
2022/06/08 07:56:00;;;;;;;17.15;12.65;;;;;;;;;;4860558;29;20045;-81
2022/06/08 07:58:26;;;;;;;18.50;12.68;;;;;;;;;;4870708;29;20128;-81
2022/06/08 08:00:53;;;;;;;17.98;13.30;;;;;;;;;;4871761;29;20053;-81
2022/06/08 08:03:20;;;;;;;21.90;14.13;;;;;;;;;;4871090;29;20110;-81
2022/06/08 08:05:46;;;;;;;17.75;12.07;;;;;;;;;;4868616;29;20053;-82
2022/06/08 08:08:13;;;;;;;16.88;12.65;;;;;;;;;;4871041;29;20084;-82
2022/06/08 08:10:40;;;;;;;13.55;11.10;;;;;;;;;;4855531;29;20061;-82
2022/06/08 08:13:07;;;;;;;14.27;11.68;;;;;;;;;;4854405;29;20053;-82
2022/06/08 08:15:34;;;;;;;13.90;11.45;;;;;;;;;;4870061;29;20053;-80
2022/06/08 08:18:00;;;;;;;13.25;10.80;;;;;;;;;;4848585;29;20033;-83
2022/06/08 08:20:28;;;;;;;11.07;9.95;;;;;;;;;;4865890;29;20473;-80
2022/06/08 08:22:55;;;;;;;14.32;10.40;;;;;;;;;;4868719;29;20056;-81
2022/06/08 08:25:22;;;;;;;10.32;9.05;;;;;;;;;;4869573;29;20132;-82
2022/06/08 08:27:48;;;;;;;13.73;9.50;;;;;;;;;;4856029;29;20045;-82
2022/06/08 08:30:16;;;;;;;13.02;9.90;;;;;;;;;;4869356;29;20060;-82
2022/06/08 08:32:42;;;;;;;11.50;10.30;;;;;;;;;;4871268;29;20033;-82
2022/06/08 08:35:08;;;;;;;11.25;9.07;;;;;;;;;;4853659;29;20045;-81
2022/06/08 08:37:34;;;;;;;11.63;8.27;;;;;;;;;;4871070;29;20068;-81
2022/06/08 08:40:00;;;;;;;11.68;9.25;;;;;;;;;;4868268;29;20041;-83
2022/06/08 08:42:27;;;;;;;9.18;8.18;;;;;;;;;;4856379;29;20534;-83
2022/06/08 08:44:53;;;;;;;10.60;6.55;;;;;;;;;;4873218;29;20049;-82
2022/06/08 08:47:19;;;;;;;8.38;7.05;;;;;;;;;;4853095;29;20521;-82
2022/06/08 08:49:52;;;;;;;7.47;5.30;;;;;;;;;;4854336;29;20049;-81
2022/06/08 08:52:49;;;;;;;7.38;5.38;;;18.90;99.90;;;;;;4854684;29;20520;-82
2022/06/08 08:55:33;;;;;;;8.23;5.97;;;;;;;;;;4868439;29;21032;-82
2022/06/08 08:58:11;;;;;;;8.32;4.30;;;;;;;;;;4861253;29;20067;-84
2022/06/08 09:00:39;;;;;;;5.40;3.65;;;;;;;;;;4870642;29;20045;-82
2022/06/08 09:03:15;;;;;;;7.65;3.60;;;;;;;;;;4873778;29;20055;-85
2022/06/08 09:05:43;;;;;;;7.43;4.00;;;;;;;;;;4871884;29;20078;-84
2022/06/08 09:08:12;;;;;;;5.18;4.50;;;;;;;;;;4871191;29;20057;-82
2022/06/08 09:10:38;;;;;;;5.72;4.28;;;;;;;;;;4872675;29;20037;-87
2022/06/08 09:13:05;;;;;;;5.40;4.65;;;;;;;;;;4870846;29;20072;-90
2022/06/08 09:15:45;;;;;;;5.22;4.22;;;;;;;;;;4872800;29;20053;-89
2022/06/08 09:18:31;;;;;;;4.60;3.85;;;;;;;;;;4854655;29;20513;-89
2022/06/08 09:20:58;;;;;;;5.63;3.95;;;;;;;;;;4855849;29;20089;-87
2022/06/08 09:23:27;;;;;;;6.22;4.25;;;;;;;;;;4871650;29;20120;-85
2022/06/08 09:26:12;;;;;;;7.57;5.50;;;;;;;;;;4875374;29;20049;-86
2022/06/08 09:28:38;;;;;;;5.35;4.30;;;;;;;;;;4871442;29;20056;-83
2022/06/08 09:31:04;;;;;;;5.35;4.85;;;;;;;;;;4873672;29;20033;-87
2022/06/08 09:33:34;;;;;;;7.15;4.13;;;;;;;;;;4858642;29;20060;-84
2022/06/08 09:36:01;;;;;;;6.35;4.00;;;;;;;;;;4869948;29;20132;-82
2022/06/08 09:38:30;;;;;;;5.15;3.67;;;;;;;;;;4849325;29;20060;-85
2022/06/08 09:41:15;;;;;;;11.35;4.28;;;;;;;;;;4872720;29;20040;-87
2022/06/08 09:43:48;;;;;;;5.43;4.10;;;;;;;;;;4866380;29;20052;-82
2022/06/08 09:46:15;;;;;;;4.73;3.17;;;;;;;;;;4857593;29;20064;-83
2022/06/08 09:52:06;;;;;;;3.85;2.55;;;;;;;;;;4873958;29;20064;-86
2022/06/08 09:54:49;;;;;;;5.15;2.70;;;;;;;;;;4829886;29;20100;-85
2022/06/08 09:57:34;;;;;;;4.35;2.47;;;;;;;;;;4873807;29;20041;-87
2022/06/08 10:00:18;;;;;;;4.53;2.38;;;;;;;;;;4856061;29;20406;-85
2022/06/08 10:03:05;;;;;;;3.20;2.20;;;;;;;;;;4857752;29;20057;-85
2022/06/08 10:05:43;;;;;;;5.40;2.50;;;;;;;;;;4862228;29;20057;-87
2022/06/08 10:08:24;;;;;;;4.28;2.70;;;;;;;;;;4879145;29;20064;-86
2022/06/08 10:10:52;;;;;;;5.70;2.22;;;;;;;;;;4877743;29;20057;-83
2022/06/08 10:13:23;;;;;;;2.53;1.90;;;;;;;;;;4861235;29;20112;-82
2022/06/08 10:15:51;;;;;;;3.35;2.20;;;;;;;;;;4861420;29;20048;-82
2022/06/08 10:18:23;;;;;;;5.07;2.35;;;;;;;;;;4869311;29;20084;-82
2022/06/08 10:20:56;;;;;;;3.05;2.00;;;;;;;;;;4864563;29;20049;-82
2022/06/08 10:23:41;;;;;;;6.85;2.05;;;;;;;;;;4856406;29;20045;-85
2022/06/08 10:26:39;;;;;;;3.60;2.33;;;;;;;;;;4861564;29;20053;-84
2022/06/08 10:29:15;;;;;;;5.13;2.47;;;;;;;;;;4843123;29;20061;-83
2022/06/08 10:31:44;;;;;;;2.85;1.75;;;;;;;;;;4871909;29;20049;-84
2022/06/08 10:34:24;;;;;;;3.88;1.95;;;;;;;;;;4862661;29;20046;-86
2022/06/08 10:37:05;;;;;;;4.05;2.10;;;;;;;;;;4866366;29;20049;-83
2022/06/08 10:39:32;;;;;;;6.95;2.05;;;;;;;;;;4850412;29;20052;-85
2022/06/08 10:45:02;;;;;;;3.78;2.20;;;;;;;;;;4855464;29;20071;-82
2022/06/08 10:47:33;;;;;;;3.08;2.58;;;;;;;;;;4871554;29;20129;-83
2022/06/08 10:50:05;;;;;;;4.68;2.65;;;;;;;;;;4870061;29;20112;-84
2022/06/08 10:52:39;;;;;;;4.40;3.20;;;;;;;;;;4871763;29;20073;-85
2022/06/08 10:55:05;;;;;;;;;;;;;;;;;;4856933;29;20359;-83
2022/06/08 10:57:31;;;;;;;3.67;2.90;;;;;;;;;;4869808;29;19928;-83
2022/06/08 11:00:16;;;;;;;4.65;3.05;;;;;;;;;;4855412;29;20053;-81
2022/06/08 11:02:44;;;;;;;4.60;3.00;;;;;;;;;;4868443;29;20101;-83
2022/06/08 11:05:18;;;;;;;6.40;3.20;;;;;;;;;;4849604;29;20045;-83
2022/06/08 11:08:00;;;;;;;6.43;3.05;;;;;;;;;;4863958;29;20111;-84
2022/06/08 11:10:46;;;;;;;3.95;2.70;;;;;;;;;;4872542;29;20140;-84
2022/06/08 11:13:18;;;;;;;3.53;3.10;;;;;;;;;;4853952;29;20049;-83
2022/06/08 11:15:54;;;;;;;4.40;2.63;;;;;;;;;;4854545;29;20049;-83
2022/06/08 11:18:35;;;;;;;5.38;2.90;;;;;;;;;;4858609;29;20049;-84
2022/06/08 11:21:07;;;;;;;8.48;2.80;;;;;;;;;;4870769;29;20049;-85
2022/06/08 11:23:37;;;;;;;3.53;2.45;;;;;;;;;;4873195;29;20121;-86
2022/06/08 11:26:09;;;;;;;3.20;2.22;;;;;;;;;;4866959;29;20109;-85
2022/06/08 11:28:40;;;;;;;4.65;2.58;;;;;;;;;;4871966;29;20049;-84
2022/06/08 11:31:12;;;;;;;3.65;2.00;;;;;;;;;;4860863;29;20136;-85
2022/06/08 11:33:57;;;;;;;5.72;2.33;;;;;;;;;;4867364;29;20064;-86
2022/06/08 11:36:29;;;;;;;4.30;2.28;;;;;;;;;;4854818;29;20049;-86
2022/06/08 11:38:55;;;;;;;3.78;2.50;;;;;;;;;;4854552;29;20151;-87
2022/06/08 11:41:41;;;;;;;4.65;2.60;;;;;;;;;;4852463;29;20101;-88
2022/06/08 11:44:13;;;;;;;4.10;2.88;;;;;;;;;;4867694;29;20037;-82
2022/06/08 11:46:44;;;;;;;3.10;2.60;;;;;;;;;;4872044;29;20049;-84
2022/06/08 11:49:27;;;;;;;3.60;2.42;;;;;;;;;;4873095;29;20053;-87
2022/06/08 11:51:53;;;;;;;4.70;3.20;;;;;;;;;;4854867;29;20072;-87
2022/06/08 11:54:22;;;;;;;4.68;2.90;;;;;;;;;;4872743;29;20041;-87
2022/06/08 11:57:09;;;;;;;7.30;3.30;;;;;;;;;;4868064;29;21305;-92
2022/06/08 11:59:46;;;;;;;4.25;3.10;;;;;;;;;;4871887;29;20088;-86
2022/06/08 12:02:22;;;;;;;3.50;3.03;;;;;;;;;;4868330;29;20056;-88
2022/06/08 12:04:51;;;;;;;3.78;2.85;;;;;;;;;;4868978;29;20060;-85
2022/06/08 12:07:36;;;;;;;4.20;3.25;;;;;;;;;;4852407;29;20054;-90
2022/06/08 12:10:04;;;;;;;7.55;3.67;;;;;;;;;;4839718;29;20430;-88
2022/06/08 12:12:30;;;;;;;6.13;3.72;;;;;;;;;;4865035;29;20467;-89
2022/06/08 12:14:56;;;;;;;10.18;2.88;;;;;;;;;;4846280;29;20132;-85
2022/06/08 12:17:38;;;;;;;4.55;2.60;;;;;;;;;;4868339;29;20068;-86
2022/06/08 12:20:20;;;;;;;2.72;2.00;;;;;;;;;;4850541;29;20041;-84
2022/06/08 12:22:52;;;;;;;4.53;2.08;;;;;;;;;;4857651;29;20121;-84
2022/06/08 12:25:23;;;;;;;4.80;2.38;;;;;;;;;;4856367;29;20065;-87
2022/06/08 12:27:54;;;;;;;4.68;2.40;;;;;;;;;;4882525;29;20061;-85
2022/06/08 12:30:26;;;;;;;4.28;2.35;;;;;;;;;;4861522;29;20128;-84
2022/06/08 12:32:52;;;;;;;5.35;2.28;;;;;;;;;;4867301;29;20049;-85
2022/06/08 12:35:18;;;;;;;4.97;2.10;;;;;;;;;;4848308;29;20121;-86
2022/06/08 12:37:46;;;;;;;5.57;2.50;;;;;;;;;;4851938;29;20046;-90
2022/06/08 12:40:18;;;;;;;4.43;2.30;;;;;;;;;;4868163;29;20154;-87
2022/06/08 12:42:47;;;;;;;5.35;2.50;;;;;;;;;;4848413;29;20098;-86
2022/06/08 12:45:33;;;;;;;4.32;2.70;;;;;;;;;;4852871;29;20061;-89
2022/06/08 12:48:36;;;;;;;4.20;2.80;;;;;;;;;;4865502;29;20136;-89
2022/06/08 12:51:36;;;;;;;8.07;3.63;;;;;;;;;;4840220;29;20049;-86
2022/06/08 12:54:10;;;;;;;5.05;3.50;;;;;;;;;;4849630;29;20064;-89
2022/06/08 12:56:36;;;;;;;5.70;3.70;;;;;;;;;;4854766;29;20424;-87
2022/06/08 12:59:02;;;;;;;5.68;3.60;;;;;;;;;;4838357;29;20041;-89
2022/06/08 13:01:29;;;;;;;5.18;3.75;;;;;;;;;;4866576;29;20251;-89
2022/06/08 13:03:56;;;;;;;5.47;3.88;;;;;;;;;;4852904;29;20052;-87
2022/06/08 13:06:24;;;;;;;5.53;3.67;;;;;;;;;;4869657;29;20049;-90
2022/06/08 13:08:50;;;;;;;32.47;7.38;;;;;;;;;;4853265;29;20129;-83
2022/06/08 13:11:21;;;;;;;29.08;8.32;;;;;;;;;;4869184;29;20577;-83
2022/06/08 13:13:49;;;;;;;21.60;8.00;;;;;;;;;;4852046;29;20049;-83
2022/06/08 13:16:24;;;;;;;12.32;8.40;;;;;;;;;;4853491;29;20049;-81
2022/06/08 13:18:54;;;;;;;15.45;7.80;;;;;;;;;;4850916;29;20390;-83
2022/06/08 13:21:31;;;;;;;12.35;7.55;;;;;;;;;;4851475;29;20045;-81
2022/06/08 13:23:57;;;;;;;12.63;7.70;;;;;;;;;;4848064;29;20088;-85
2022/06/08 13:26:26;;;;;;;11.82;8.50;;;;;;;;;;4851647;29;20051;-85
2022/06/08 13:28:52;;;;;;;5.85;4.53;;;;;;;;;;4847557;29;20132;-84
2022/06/08 13:31:23;;;;;;;11.10;5.07;;;;;;;;;;4852171;29;20141;-86
2022/06/08 13:34:00;;;;;;;11.88;3.95;;;;;;;;;;4846860;29;20114;-83
2022/06/08 13:36:35;;;;;;;3.40;2.05;;;;;;;;;;4848469;29;20501;-86
2022/06/08 13:39:12;;;;;;;6.90;2.35;;;;;;;;;;4853202;29;20129;-86
2022/06/08 13:41:39;;;;;;;5.22;2.25;;;;;;;;;;4854279;29;20052;-83
2022/06/08 13:44:32;;;;;;;7.45;2.72;;;;;;;;;;4853602;29;20080;-84
2022/06/08 13:47:01;;;;;;;3.55;2.50;;;;;;;;;;4850594;29;20092;-84
2022/06/08 13:49:28;;;;;;;7.80;2.90;;;;;;;;;;4846130;29;20206;-86
2022/06/08 13:51:55;;;;;;;5.40;2.80;;;;;;;;;;4853468;29;20073;-84
2022/06/08 13:54:25;;;;;;;4.35;2.75;;;;;;;;;;4849071;29;20529;-89
2022/06/08 13:56:52;;;;;;;8.75;3.60;;;;;;;;;;4849647;29;20054;-85
2022/06/08 13:59:19;;;;;;;5.68;3.45;;;;;;;;;;4849154;29;20069;-86
2022/06/08 14:01:46;;;;;;;8.30;3.85;;;;;;;;;;4848456;29;20049;-84
2022/06/08 14:04:18;;;;;;;7.80;3.58;;;;;;;;;;4845360;29;20549;-85
2022/06/08 14:15:04;;;;;;;8.75;4.05;;;;;;;;;;4851023;29;20479;-86
2022/06/08 14:17:33;;;;;;;11.85;4.90;;;;;;;;;;4863591;29;22240;-87
2022/06/08 14:20:10;;;;;;;7.70;4.70;;;;;;;;;;4867431;29;20470;-84
2022/06/08 14:22:42;;;;;;;10.07;5.38;;;;;;;;;;4868226;29;20124;-84
2022/06/08 14:25:10;;;;;;;10.00;5.60;;;;;;;;;;4851029;29;20072;-84
2022/06/08 14:27:42;;;;;;;8.18;5.68;;;;;;;;;;4870392;29;20057;-84
2022/06/08 14:30:18;;;;;;;11.80;6.63;;;;;;;;;;4867651;29;20053;-84
2022/06/08 14:32:53;;;;;;;11.63;7.13;;;;;;;;;;4866954;29;20493;-87
2022/06/08 14:35:24;;;;;;;10.40;6.85;;;;;;;;;;4864047;29;20053;-87
2022/06/08 14:41:12;;;;;;;9.75;7.75;;;;;;;;;;4799956;29;20526;-85
2022/06/08 14:43:57;;;;;;;13.10;9.15;;;;;;;;;;4795010;29;20069;-86
2022/06/08 14:46:23;;;;;;;16.27;9.45;;;;;;;;;;4795304;29;20156;-85
2022/06/08 14:48:56;;;;;;;12.27;9.93;;;;;;;;;;4808201;29;20054;-85
2022/06/08 14:51:23;;;;;;;14.37;10.37;;;;;;;;;;4839008;29;20081;-86
2022/06/08 14:54:04;;;;;;;15.43;11.35;;;;;;;;;;4864411;29;20083;-85
2022/06/08 14:56:37;;;;;;;17.55;13.32;;;;;;;;;;4852036;29;20057;-82
2022/06/08 14:59:12;;;;;;;16.02;14.20;;;;;;;;;;4866158;29;20057;-83
2022/06/08 15:01:53;;;;;;;21.58;18.02;;;;;;;;;;4867381;29;20140;-84
2022/06/08 15:04:34;;;;;;;22.70;20.42;;;;;;;;;;4866786;29;20635;-84
2022/06/08 15:07:07;;;;;;;25.23;22.40;;;;;;;;;;4861278;29;20061;-84
2022/06/08 15:09:33;;;;;;;25.77;21.85;;;;;;;;;;4864512;29;20053;-84
2022/06/08 15:12:07;;;;;;;23.58;21.38;;;;;;;;;;4866670;29;20385;-84
2022/06/08 15:14:41;;;;;;;20.77;17.90;;;;;;;;;;4866615;29;20049;-84
2022/06/08 15:17:12;;;;;;;19.65;17.45;;;;;;;;;;4868258;29;20545;-85
2022/06/08 15:20:06;;;;;;;19.77;17.77;;;;;;;;;;4845686;29;22000;-84
2022/06/08 15:22:32;;;;;;;;;;;;;;;;;;4829845;29;20084;-85
2022/06/08 15:27:57;;;;;;;19.40;17.20;;;;;;;;;;4847356;29;20226;-85